Time;durP1;ratioP1;P1;durP2;ratioP2;P2;SDS_P1;SDS_P2;PMS_P1;PMS_P2;Temp;Humidity;BMP_temperature;BMP_pressure;BME280_temperature;BME280_humidity;BME280_pressure;Samples;Min_cycle;Max_cycle;Signal;HPM_P1;HPM_P2
2022/12/17 13:08:22;;;;;;;32.75;14.93;;;-3.20;99.90;;;;;;4996560;28;20191;-83
2022/12/17 13:10:48;;;;;;;46.25;21.63;;;-2.60;99.90;;;;;;4998862;28;20211;-84
2022/12/17 13:13:14;;;;;;;45.00;19.35;;;;;;;;;;5007131;28;20220;-84
2022/12/17 13:15:46;;;;;;;38.27;17.70;;;-2.30;99.90;;;;;;5012410;28;20250;-82
2022/12/17 13:18:32;;;;;;;49.15;20.30;;;-2.10;99.90;;;;;;5004982;28;20435;-84
2022/12/17 13:21:03;;;;;;;50.03;23.42;;;-2.00;99.90;;;;;;4991595;28;20198;-84
2022/12/17 13:23:30;;;;;;;54.60;22.52;;;-1.90;99.90;;;;;;4989990;28;20187;-82
2022/12/17 13:26:12;;;;;;;44.55;20.35;;;-2.00;99.90;;;;;;4992330;28;20186;-82
2022/12/17 13:28:38;;;;;;;27.95;15.48;;;-1.90;99.90;;;;;;4996656;28;20219;-83
2022/12/17 13:31:12;;;;;;;59.40;27.37;;;-1.80;99.90;;;;;;4995183;28;20760;-83
2022/12/17 13:37:10;;;;;;;51.55;21.02;;;-1.10;99.90;;;;;;5007200;28;20470;-85
2022/12/17 13:39:55;;;;;;;47.13;21.85;;;-1.10;99.90;;;;;;5029346;28;20195;-82
2022/12/17 13:42:30;;;;;;;59.33;27.10;;;-1.30;99.90;;;;;;5037341;28;20176;-85
2022/12/17 13:44:56;;;;;;;53.65;24.58;;;-1.50;99.90;;;;;;5003159;28;20272;-87
2022/12/17 13:47:27;;;;;;;45.63;24.25;;;-1.70;99.90;;;;;;5004109;28;20653;-86
2022/12/17 13:49:55;;;;;;;55.03;23.05;;;-2.00;99.90;;;;;;4999355;28;20206;-84
2022/12/17 13:52:24;;;;;;;52.38;24.08;;;-2.20;99.90;;;;;;4994950;28;20201;-84
2022/12/17 13:54:50;;;;;;;53.05;21.48;;;-3.00;99.90;;;;;;5012771;28;20774;-83
2022/12/17 13:57:22;;;;;;;57.72;23.27;;;-2.90;99.90;;;;;;4998282;28;20216;-83
2022/12/17 13:59:53;;;;;;;44.28;19.90;;;-3.10;99.90;;;;;;4996821;28;20988;-84
2022/12/17 14:02:37;;;;;;;39.22;17.88;;;-3.30;99.90;;;;;;4990298;28;20189;-84
2022/12/17 14:05:06;;;;;;;48.85;20.50;;;-3.50;99.90;;;;;;4995956;28;20190;-84
2022/12/17 14:07:36;;;;;;;53.10;20.33;;;-3.60;99.90;;;;;;5010647;28;20258;-84
2022/12/17 14:10:04;;;;;;;53.97;21.70;;;-3.80;99.90;;;;;;5007063;28;20238;-83
2022/12/17 14:12:33;;;;;;;45.65;20.92;;;-3.90;99.90;;;;;;4993584;28;20620;-85
2022/12/17 14:15:00;;;;;;;55.40;22.40;;;-3.90;99.90;;;;;;4998531;28;20234;-83
2022/12/17 14:17:46;;;;;;;52.75;23.35;;;-4.00;99.90;;;;;;5008497;28;20183;-84
2022/12/17 14:20:19;;;;;;;49.90;22.48;;;-4.10;99.90;;;;;;5002755;28;20703;-84
2022/12/17 14:22:48;;;;;;;57.20;19.60;;;-4.10;99.90;;;;;;5001113;28;20676;-82
2022/12/17 14:25:23;;;;;;;64.35;24.63;;;-4.10;99.90;;;;;;5012976;28;20194;-85
2022/12/17 14:28:20;;;;;;;51.78;21.60;;;-4.20;99.90;;;;;;4998982;28;20192;-83
2022/12/17 14:30:45;;;;;;;51.90;24.42;;;-4.20;99.90;;;;;;5014629;28;20203;-82
2022/12/17 14:33:29;;;;;;;60.65;24.42;;;-4.30;99.90;;;;;;4996180;28;20203;-84
2022/12/17 14:35:57;;;;;;;57.65;20.83;;;-4.30;99.90;;;;;;5022813;28;20182;-83
2022/12/17 14:38:24;;;;;;;45.40;19.05;;;-4.40;99.90;;;;;;5017502;28;20188;-86
2022/12/17 14:40:50;;;;;;;53.95;23.50;;;-4.50;99.90;;;;;;4995784;28;20207;-83
2022/12/17 14:43:16;;;;;;;50.35;20.30;;;-4.50;99.90;;;;;;4994886;28;20197;-85
2022/12/17 14:49:02;;;;;;;43.78;19.52;;;-4.80;99.90;;;;;;4996991;28;20237;-85
2022/12/17 14:51:39;;;;;;;56.45;21.40;;;-4.90;99.90;;;;;;5011623;28;20225;-84
2022/12/17 14:54:12;;;;;;;59.50;23.13;;;-5.00;99.90;;;;;;5012797;28;20194;-84
2022/12/17 14:56:40;;;;;;;53.30;24.23;;;-5.10;99.90;;;;;;5000370;28;20791;-84
2022/12/17 14:59:31;;;;;;;64.95;27.38;;;-5.10;99.90;;;;;;4995529;28;20186;-84
2022/12/17 15:02:00;;;;;;;51.03;23.17;;;-5.10;99.90;;;;;;5008514;28;20174;-84
2022/12/17 15:04:26;;;;;;;60.67;28.02;;;-5.10;99.90;;;;;;4999187;28;22179;-85
2022/12/17 15:06:53;;;;;;;58.97;23.73;;;-5.10;99.90;;;;;;4989309;28;20194;-83
2022/12/17 15:09:19;;;;;;;54.88;25.55;;;-5.20;99.90;;;;;;5015401;28;20182;-85
2022/12/17 15:11:44;;;;;;;55.10;24.20;;;-5.20;99.90;;;;;;5006164;28;20618;-84
2022/12/17 15:14:10;;;;;;;54.83;20.53;;;;;;;;;;4995378;28;20643;-86
2022/12/17 15:16:36;;;;;;;48.73;20.30;;;-5.60;99.90;;;;;;4995718;28;20209;-84
2022/12/17 15:19:01;;;;;;;45.27;21.30;;;-5.80;99.90;;;;;;4992353;28;20791;-85
2022/12/17 15:21:27;;;;;;;47.90;21.80;;;;;;;;;;4991163;28;21821;-86
2022/12/17 15:23:53;;;;;;;51.35;23.17;;;-5.90;99.90;;;;;;4996487;28;20186;-82
2022/12/17 15:26:20;;;;;;;49.37;19.60;;;-6.00;99.90;;;;;;4997654;28;20273;-86
2022/12/17 15:28:45;;;;;;;54.88;20.30;;;-6.00;99.90;;;;;;5008393;28;20466;-81
2022/12/17 15:31:12;;;;;;;45.67;22.93;;;-6.10;99.90;;;;;;5001658;28;20241;-87
2022/12/17 15:33:39;;;;;;;47.50;21.70;;;-6.10;99.90;;;;;;4993325;28;20214;-85
2022/12/17 15:36:04;;;;;;;50.78;24.10;;;-6.10;99.90;;;;;;4992246;28;20182;-87
2022/12/17 15:38:30;;;;;;;49.33;23.10;;;-6.30;99.90;;;;;;4991350;28;20189;-85
2022/12/17 15:40:59;;;;;;;49.87;21.60;;;-6.40;99.90;;;;;;4990883;28;20552;-83
2022/12/17 15:43:24;;;;;;;47.63;21.13;;;-6.50;99.90;;;;;;5004438;28;20178;-84
2022/12/17 15:45:51;;;;;;;39.00;19.27;;;-6.60;99.90;;;;;;5014386;28;20186;-81
2022/12/17 15:48:19;;;;;;;53.88;20.65;;;-6.60;99.90;;;;;;5007863;28;20194;-83
2022/12/17 15:50:45;;;;;;;48.40;22.63;;;;;;;;;;4986178;28;20358;-84
2022/12/17 15:53:12;;;;;;;40.53;17.83;;;-6.70;99.90;;;;;;4985853;28;20189;-82
2022/12/17 15:55:38;;;;;;;39.15;18.17;;;-6.70;99.90;;;;;;4988828;28;20336;-83
2022/12/17 15:58:05;;;;;;;58.33;24.80;;;-6.90;99.90;;;;;;4995613;28;20297;-81
2022/12/17 16:00:30;;;;;;;56.53;24.90;;;-4.40;99.90;;;;;;4995589;28;20206;-82
2022/12/17 16:02:56;;;;;;;70.03;27.07;;;-6.70;99.90;;;;;;4988646;28;20187;-81
2022/12/17 16:05:22;;;;;;;63.47;22.90;;;-6.60;99.90;;;;;;4988560;28;20198;-80
2022/12/17 16:07:48;;;;;;;58.53;23.40;;;-6.60;99.90;;;;;;4981547;28;20741;-80
2022/12/17 16:10:14;;;;;;;46.88;21.30;;;-6.50;99.90;;;;;;5030696;28;20221;-81
2022/12/17 16:12:40;;;;;;;65.53;29.67;;;-6.50;99.90;;;;;;5008065;28;20522;-85
2022/12/17 16:15:07;;;;;;;47.85;25.75;;;-6.60;99.90;;;;;;5004827;28;20489;-82
2022/12/17 16:17:33;;;;;;;48.13;20.95;;;-6.70;99.90;;;;;;5012978;28;20278;-84
2022/12/17 16:19:59;;;;;;;47.13;20.95;;;-6.80;99.90;;;;;;4986204;28;20675;-84
2022/12/17 16:22:26;;;;;;;57.28;21.38;;;-6.90;99.90;;;;;;4990816;28;20232;-80
2022/12/17 16:24:51;;;;;;;59.53;25.13;;;-7.00;99.90;;;;;;4993105;28;20661;-81
2022/12/17 16:27:17;;;;;;;67.90;26.97;;;-7.10;99.90;;;;;;4997071;28;20187;-83
2022/12/17 16:29:46;;;;;;;55.65;23.25;;;-6.90;99.90;;;;;;4990159;28;20244;-84
2022/12/17 16:32:13;;;;;;;53.30;21.60;;;-6.90;99.90;;;;;;5014016;28;20561;-82
2022/12/17 16:34:38;;;;;;;52.88;21.67;;;-6.70;99.90;;;;;;4996150;28;20207;-81
2022/12/17 16:37:06;;;;;;;59.30;24.97;;;-6.60;99.90;;;;;;5021387;28;20250;-82
2022/12/17 16:39:32;;;;;;;61.35;25.30;;;-6.70;99.90;;;;;;5007979;28;20990;-82
2022/12/17 16:41:57;;;;;;;71.30;26.77;;;-6.70;99.90;;;;;;4997179;28;20186;-83
2022/12/17 16:44:23;;;;;;;57.83;24.10;;;-7.40;99.90;;;;;;4997197;28;20894;-83
2022/12/17 16:46:49;;;;;;;68.63;27.50;;;-6.60;99.90;;;;;;5015122;28;20432;-82
2022/12/17 16:49:17;;;;;;;54.30;24.97;;;-6.60;99.90;;;;;;4992737;28;20183;-83
2022/12/17 16:51:44;;;;;;;68.10;26.13;;;-6.70;99.90;;;;;;5008152;28;20446;-82
2022/12/17 16:54:13;;;;;;;47.33;21.95;;;-6.60;99.90;;;;;;4993437;28;20743;-83
2022/12/17 16:56:40;;;;;;;69.22;24.60;;;-6.70;99.90;;;;;;4995061;28;20202;-84
2022/12/17 16:59:08;;;;;;;78.05;29.35;;;-6.80;99.90;;;;;;5031105;28;20180;-84
2022/12/17 17:01:36;;;;;;;69.15;25.35;;;-6.90;99.90;;;;;;4995974;28;20253;-83
2022/12/17 17:04:03;;;;;;;50.97;19.25;;;-6.90;99.90;;;;;;5009214;28;20183;-84
2022/12/17 17:06:29;;;;;;;56.97;22.52;;;-7.00;99.90;;;;;;4989316;28;20179;-83
2022/12/17 17:08:54;;;;;;;71.50;31.67;;;-7.10;99.90;;;;;;5000318;28;20414;-83
2022/12/17 17:11:22;;;;;;;56.47;24.57;;;-7.10;99.90;;;;;;5000008;28;20217;-86
2022/12/17 17:13:50;;;;;;;66.25;28.10;;;-7.10;99.90;;;;;;5009751;28;20234;-85
2022/12/17 17:16:17;;;;;;;61.47;25.10;;;-7.10;99.90;;;;;;4999633;28;20182;-83
2022/12/17 17:18:42;;;;;;;52.53;22.60;;;-7.10;99.90;;;;;;5010691;28;20264;-84
2022/12/17 17:21:22;;;;;;;49.43;22.17;;;-7.10;99.90;;;;;;4995713;28;20202;-83
2022/12/17 17:24:27;;;;;;;61.63;27.35;;;-7.20;99.90;;;;;;4992462;28;20662;-84
2022/12/17 17:26:54;;;;;;;65.07;27.70;;;-7.00;99.90;;;;;;5013290;28;20885;-86
2022/12/17 17:29:19;;;;;;;81.20;31.48;;;-7.00;99.90;;;;;;4992744;28;20178;-84
2022/12/17 17:31:45;;;;;;;42.20;20.40;;;-7.00;99.90;;;;;;4994687;28;21175;-84
2022/12/17 17:34:12;;;;;;;58.60;23.85;;;-7.00;99.90;;;;;;4989666;28;20234;-81
2022/12/17 17:36:39;;;;;;;56.88;25.50;;;-7.10;99.90;;;;;;4988515;28;20201;-83
2022/12/17 17:39:05;;;;;;;63.45;24.52;;;-7.10;99.90;;;;;;4986304;28;20261;-81
2022/12/17 17:41:32;;;;;;;71.63;24.80;;;-7.20;99.90;;;;;;4991827;28;20209;-87
2022/12/17 17:44:10;;;;;;;61.58;28.33;;;-7.20;99.90;;;;;;4995127;28;20660;-82
2022/12/17 17:46:36;;;;;;;44.65;20.65;;;;;;;;;;4988319;28;20692;-81
2022/12/17 17:49:04;;;;;;;60.33;22.67;;;-7.20;99.90;;;;;;4997843;28;20190;-84
2022/12/17 17:51:36;;;;;;;55.30;25.40;;;-7.30;99.90;;;;;;5004599;28;20425;-85
2022/12/17 17:54:03;;;;;;;52.95;20.52;;;-7.30;99.90;;;;;;4993049;28;20215;-87
2022/12/17 17:56:32;;;;;;;63.70;26.23;;;-7.50;99.90;;;;;;4990500;28;20273;-85
2022/12/17 17:59:06;;;;;;;52.67;20.50;;;-7.50;99.90;;;;;;4992550;28;20175;-84
2022/12/17 18:01:34;;;;;;;59.42;20.48;;;-7.60;99.90;;;;;;4994656;28;20688;-84
2022/12/17 18:04:02;;;;;;;58.80;21.17;;;-7.70;99.90;;;;;;4987028;28;20279;-82
2022/12/17 18:06:28;;;;;;;43.67;19.10;;;-7.70;99.90;;;;;;4990725;28;20186;-84
2022/12/17 18:08:58;;;;;;;51.03;23.47;;;-7.60;99.90;;;;;;4995339;28;20707;-85
2022/12/17 18:11:27;;;;;;;57.83;23.13;;;-7.80;99.90;;;;;;4998857;28;20534;-83
2022/12/17 18:13:56;;;;;;;52.75;22.25;;;-7.70;99.90;;;;;;5026577;28;20214;-83
2022/12/17 18:16:34;;;;;;;66.32;23.38;;;-7.60;99.90;;;;;;4990707;28;20195;-82
2022/12/17 18:19:20;;;;;;;56.38;23.58;;;-7.70;99.90;;;;;;5009794;28;20227;-81
2022/12/17 18:21:46;;;;;;;69.88;23.27;;;;;;;;;;4991844;28;20183;-83
2022/12/17 18:24:21;;;;;;;48.33;24.25;;;-7.70;99.90;;;;;;4995934;28;21175;-83
2022/12/17 18:26:48;;;;;;;55.78;22.10;;;-7.70;99.90;;;;;;4997511;28;20308;-83
2022/12/17 18:29:23;;;;;;;57.90;21.40;;;-7.70;99.90;;;;;;5011359;28;20186;-83
2022/12/17 18:31:49;;;;;;;50.05;20.02;;;-7.70;99.90;;;;;;5015240;28;20182;-83
2022/12/17 18:34:18;;;;;;;74.65;30.23;;;-7.80;99.90;;;;;;4999576;28;20270;-81
2022/12/17 18:36:44;;;;;;;65.00;26.23;;;-7.70;99.90;;;;;;5019686;28;20191;-81
2022/12/17 18:39:13;;;;;;;65.63;24.95;;;-7.70;99.90;;;;;;5028414;28;20205;-81
2022/12/17 18:44:24;;;;;;;68.82;23.92;;;-7.70;99.90;;;;;;5022841;28;20209;-82
2022/12/17 18:46:50;;;;;;;97.18;36.70;;;;;;;;;;5016822;28;20194;-81
2022/12/17 18:49:18;;;;;;;70.60;30.38;;;-7.80;99.90;;;;;;5022275;28;20701;-87
2022/12/17 18:51:45;;;;;;;66.07;24.88;;;-7.70;99.90;;;;;;5002688;28;20212;-86
2022/12/17 18:54:19;;;;;;;71.45;30.65;;;-7.70;99.90;;;;;;4997343;28;20297;-85
2022/12/17 18:56:45;;;;;;;68.85;28.20;;;-7.80;99.90;;;;;;4993967;28;20182;-85
2022/12/17 18:59:16;;;;;;;62.30;28.60;;;-7.80;99.90;;;;;;5000154;28;20190;-85
2022/12/17 19:01:42;;;;;;;64.18;25.92;;;-7.80;99.90;;;;;;5005348;28;20190;-84
2022/12/17 19:04:09;;;;;;;89.07;32.07;;;-7.80;99.90;;;;;;5003068;28;20467;-86
2022/12/17 19:06:37;;;;;;;115.60;42.05;;;-7.90;99.90;;;;;;5001459;28;20603;-82
2022/12/17 19:09:06;;;;;;;68.57;30.98;;;-8.00;99.90;;;;;;5003145;28;20186;-84
2022/12/17 19:11:33;;;;;;;83.30;33.92;;;-8.10;99.90;;;;;;5004340;28;20249;-83
2022/12/17 19:13:59;;;;;;;119.35;41.75;;;;;;;;;;5003882;28;20704;-84
2022/12/17 19:16:27;;;;;;;85.03;29.30;;;-8.20;99.90;;;;;;4998249;28;20175;-84
2022/12/17 19:18:58;;;;;;;65.70;26.20;;;-8.10;99.90;;;;;;5000156;28;20506;-80
2022/12/17 19:21:24;;;;;;;51.85;23.40;;;-8.10;99.90;;;;;;4997299;28;20275;-85
2022/12/17 19:23:56;;;;;;;61.58;23.52;;;-8.10;99.90;;;;;;4989574;28;20187;-84
2022/12/17 19:26:22;;;;;;;66.68;26.77;;;-8.00;99.90;;;;;;5010761;28;20407;-80
2022/12/17 19:28:50;;;;;;;76.25;30.15;;;-8.10;99.90;;;;;;5000258;28;20222;-82
2022/12/17 19:31:18;;;;;;;55.58;22.30;;;-8.10;99.90;;;;;;5017810;28;20228;-83
2022/12/17 19:33:44;;;;;;;65.13;24.98;;;-8.10;99.90;;;;;;5024496;28;20207;-86
2022/12/17 19:36:15;;;;;;;76.07;28.50;;;-8.20;99.90;;;;;;4999475;28;20175;-83
2022/12/17 19:38:41;;;;;;;80.88;31.83;;;-8.20;99.90;;;;;;5002212;28;20183;-82
2022/12/17 19:41:14;;;;;;;76.40;34.47;;;-8.10;99.90;;;;;;4998264;28;20228;-84
2022/12/17 19:43:40;;;;;;;47.67;18.90;;;-8.10;99.90;;;;;;5017093;28;20889;-82
2022/12/17 19:46:09;;;;;;;60.55;23.63;;;-8.10;99.90;;;;;;5000156;28;20247;-79
2022/12/17 19:48:36;;;;;;;59.15;23.33;;;-8.10;99.90;;;;;;5003433;28;20237;-82
2022/12/17 19:51:03;;;;;;;56.75;23.88;;;-8.20;99.90;;;;;;5003343;28;20198;-83
2022/12/17 19:53:30;;;;;;;86.45;33.35;;;-8.10;99.90;;;;;;5005530;28;20257;-82
2022/12/17 19:56:07;;;;;;;78.50;31.55;;;-8.10;99.90;;;;;;5003117;28;20183;-84
2022/12/17 19:58:40;;;;;;;106.93;46.45;;;-8.30;99.90;;;;;;5006173;28;20198;-78
2022/12/17 20:01:08;;;;;;;64.20;26.00;;;-8.10;99.90;;;;;;5018851;28;20218;-78
2022/12/17 20:03:35;;;;;;;62.20;23.85;;;;;;;;;;5011049;28;20178;-86
2022/12/17 20:06:00;;;;;;;43.38;19.88;;;-8.20;99.90;;;;;;5020529;28;20545;-84
2022/12/17 20:08:28;;;;;;;51.23;19.77;;;-8.20;99.90;;;;;;5004287;28;20198;-84
2022/12/17 20:10:53;;;;;;;56.42;22.75;;;-8.20;99.90;;;;;;5012951;28;20547;-83
2022/12/17 20:13:19;;;;;;;61.00;25.33;;;-8.10;99.90;;;;;;5000258;28;20191;-82
2022/12/17 20:15:44;;;;;;;62.27;23.20;;;-8.00;99.90;;;;;;5002915;28;20183;-86
2022/12/17 20:18:11;;;;;;;62.13;26.73;;;-8.00;99.90;;;;;;5000674;28;20280;-83
2022/12/17 20:20:36;;;;;;;50.15;23.70;;;-8.00;99.90;;;;;;5019055;28;20195;-80
2022/12/17 20:23:02;;;;;;;59.17;23.30;;;;;;;;;;5016802;28;20189;-83
2022/12/17 20:25:28;;;;;;;64.82;24.50;;;;;;;;;;4998282;28;20245;-84
2022/12/17 20:27:54;;;;;;;53.17;22.13;;;;;;;;;;5019780;28;20187;-83
2022/12/17 20:30:21;;;;;;;69.53;24.02;;;-8.00;99.90;;;;;;5018848;28;20461;-83
2022/12/17 20:32:46;;;;;;;65.03;25.70;;;-8.10;99.90;;;;;;5003517;28;20201;-84
2022/12/17 20:35:12;;;;;;;50.97;26.10;;;-8.10;99.90;;;;;;5006884;28;20219;-81
2022/12/17 20:37:38;;;;;;;78.63;28.77;;;-8.10;99.90;;;;;;5021602;28;20464;-80
2022/12/17 20:40:04;;;;;;;63.40;27.23;;;-8.20;99.90;;;;;;5024773;28;20210;-82
2022/12/17 20:42:29;;;;;;;73.75;28.88;;;-8.20;99.90;;;;;;5005469;28;20798;-85
2022/12/17 20:44:56;;;;;;;72.77;29.57;;;-8.30;99.90;;;;;;5002219;28;20251;-82
2022/12/17 20:47:22;;;;;;;74.05;31.42;;;;;;;;;;4998370;28;20281;-82
2022/12/17 20:49:48;;;;;;;103.60;31.63;;;;;;;;;;5000360;28;20290;-81
2022/12/17 20:52:14;;;;;;;73.57;27.90;;;;;;;;;;5007827;28;21707;-83
2022/12/17 20:54:40;;;;;;;66.83;27.13;;;;;;;;;;5019803;28;20202;-83
2022/12/17 20:57:06;;;;;;;60.23;25.73;;;;;;;;;;5013373;28;20433;-81
2022/12/17 20:59:32;;;;;;;79.13;29.33;;;;;;;;;;5005446;28;20430;-81
2022/12/17 21:01:57;;;;;;;72.05;26.13;;;-8.50;99.90;;;;;;5024112;28;20225;-85
2022/12/17 21:04:23;;;;;;;71.27;30.10;;;;;;;;;;5022768;28;20191;-84
2022/12/17 21:06:49;;;;;;;68.18;23.70;;;-8.40;99.90;;;;;;5006934;28;20197;-85
2022/12/17 21:09:18;;;;;;;85.80;29.40;;;;;;;;;;5006197;28;20179;-85
2022/12/17 21:11:44;;;;;;;54.88;22.77;;;-8.40;99.90;;;;;;5009574;28;20210;-82
2022/12/17 21:14:13;;;;;;;75.78;25.48;;;-8.40;99.90;;;;;;5028046;28;20198;-79
2022/12/17 21:16:39;;;;;;;39.75;20.33;;;-8.40;99.90;;;;;;5022685;28;20175;-79
2022/12/17 21:19:06;;;;;;;58.95;20.80;;;-8.50;99.90;;;;;;5008300;28;20186;-81
2022/12/17 21:21:36;;;;;;;77.78;25.27;;;-8.80;99.90;;;;;;5011056;28;20194;-81
2022/12/17 21:24:03;;;;;;;55.33;21.90;;;-9.00;99.90;;;;;;5009233;28;20179;-80
2022/12/17 21:26:37;;;;;;;85.88;30.85;;;-9.10;99.90;;;;;;5022280;28;20186;-82
2022/12/17 21:29:05;;;;;;;83.68;31.55;;;-9.10;99.90;;;;;;5008738;28;20228;-85
2022/12/17 21:31:36;;;;;;;77.70;31.65;;;-9.20;99.90;;;;;;5006544;28;20209;-82
2022/12/17 21:34:04;;;;;;;51.08;19.88;;;-9.30;99.90;;;;;;5001275;28;20206;-79
2022/12/17 21:36:32;;;;;;;75.68;29.88;;;-9.30;99.90;;;;;;5007175;28;20205;-81
2022/12/17 21:38:58;;;;;;;65.88;28.10;;;-9.20;99.90;;;;;;5009220;28;20224;-83
2022/12/17 21:41:27;;;;;;;64.30;28.25;;;-9.10;99.90;;;;;;5002128;28;20207;-81
2022/12/17 21:44:03;;;;;;;54.92;25.15;;;-9.10;99.90;;;;;;5008683;28;20210;-83
2022/12/17 21:46:29;;;;;;;34.47;14.50;;;-9.10;99.90;;;;;;5004007;28;20173;-84
2022/12/17 21:48:57;;;;;;;36.72;15.68;;;-9.10;99.90;;;;;;5005852;28;20183;-81
2022/12/17 21:51:23;;;;;;;40.28;15.85;;;-9.20;99.90;;;;;;5007305;28;20211;-79
2022/12/17 21:53:53;;;;;;;48.17;24.20;;;-9.20;99.90;;;;;;5007407;28;20234;-80
2022/12/17 21:56:18;;;;;;;60.28;23.17;;;-7.30;99.90;;;;;;5004548;28;20450;-81
2022/12/17 21:58:45;;;;;;;44.17;16.13;;;-9.20;99.90;;;;;;5005261;28;20297;-82
2022/12/17 22:01:20;;;;;;;42.65;19.60;;;-9.10;99.90;;;;;;5004662;28;20195;-80
2022/12/17 22:03:47;;;;;;;62.20;20.05;;;-9.10;99.90;;;;;;5017461;28;20182;-82
2022/12/17 22:06:15;;;;;;;52.75;19.10;;;-9.20;99.90;;;;;;4996290;28;20182;-85
2022/12/17 22:08:41;;;;;;;50.20;19.63;;;-9.30;99.90;;;;;;4993392;28;20542;-85
2022/12/17 22:11:12;;;;;;;50.55;23.90;;;-9.30;99.90;;;;;;4995177;28;20276;-83
2022/12/17 22:16:23;;;;;;;56.88;20.80;;;-9.40;99.90;;;;;;4992220;28;20205;-83
2022/12/17 22:18:50;;;;;;;67.10;22.08;;;-9.30;99.90;;;;;;5011420;28;20190;-79
2022/12/17 22:21:16;;;;;;;49.28;21.10;;;-9.30;99.90;;;;;;4990823;28;20207;-81
2022/12/17 22:23:45;;;;;;;50.72;23.35;;;-10.10;99.90;;;;;;4998623;28;20179;-81
2022/12/17 22:26:11;;;;;;;44.33;16.35;;;-9.20;99.90;;;;;;4990737;28;20658;-82
2022/12/17 22:28:38;;;;;;;56.50;23.30;;;-9.20;99.90;;;;;;5008800;28;20185;-80
2022/12/17 22:33:50;;;;;;;56.00;26.13;;;-9.20;99.90;;;;;;5019313;28;20221;-86
2022/12/17 22:36:17;;;;;;;59.43;24.80;;;;;;;;;;5026224;28;20183;-86
2022/12/17 22:38:42;;;;;;;50.67;22.60;;;-9.20;99.90;;;;;;5002378;28;20179;-81
2022/12/17 22:43:28;;;;;;;64.67;26.77;;;-9.20;99.90;;;;;;5011776;28;20202;-83
2022/12/17 22:43:54;;;;;;;48.78;21.95;;;-9.20;99.90;;;;;;4996836;28;21095;-82
2022/12/17 22:46:19;;;;;;;65.97;22.77;;;-9.20;99.90;;;;;;4993729;28;20186;-82
2022/12/17 22:48:45;;;;;;;73.63;28.43;;;;;;;;;;4988518;28;20182;-83
2022/12/17 22:51:11;;;;;;;59.15;22.55;;;-9.00;99.90;;;;;;4993820;28;20238;-82
2022/12/17 22:53:37;;;;;;;68.72;27.15;;;-9.00;99.90;;;;;;4996999;28;20201;-83
2022/12/17 22:56:04;;;;;;;72.10;27.17;;;-9.10;99.90;;;;;;5009488;28;20318;-82
2022/12/17 22:58:30;;;;;;;66.70;27.42;;;-9.10;99.90;;;;;;4995019;28;20182;-80
2022/12/17 23:00:57;;;;;;;78.20;26.17;;;-9.20;99.90;;;;;;5006559;28;20203;-82
2022/12/17 23:03:23;;;;;;;72.18;26.30;;;-9.20;99.90;;;;;;4999330;28;20187;-82
2022/12/17 23:05:48;;;;;;;70.30;26.63;;;-9.30;99.90;;;;;;5010179;28;20266;-81
2022/12/17 23:08:14;;;;;;;50.47;21.30;;;-9.30;99.90;;;;;;4997709;28;20187;-84
2022/12/17 23:10:39;;;;;;;58.43;26.33;;;-9.20;99.90;;;;;;4991169;28;20218;-83
2022/12/17 23:13:05;;;;;;;64.20;27.23;;;-9.40;99.90;;;;;;4995420;28;20640;-83
2022/12/17 23:15:35;;;;;;;36.87;17.50;;;-9.20;99.90;;;;;;4996861;28;20211;-84
2022/12/17 23:18:04;;;;;;;72.38;25.17;;;-9.30;99.90;;;;;;4996074;28;20175;-82
2022/12/17 23:20:31;;;;;;;69.60;27.48;;;-9.40;99.90;;;;;;4991154;28;20260;-81
2022/12/17 23:22:57;;;;;;;89.93;28.95;;;-9.40;99.90;;;;;;4993976;28;20185;-86
2022/12/17 23:25:23;;;;;;;56.97;25.10;;;-9.60;99.90;;;;;;4993951;28;20183;-84
2022/12/17 23:27:49;;;;;;;72.80;30.73;;;-9.50;99.90;;;;;;4992977;28;20438;-86
2022/12/17 23:30:16;;;;;;;72.50;29.20;;;-9.50;99.90;;;;;;5009260;28;20241;-84
2022/12/17 23:32:43;;;;;;;77.53;27.02;;;-9.50;99.90;;;;;;4995017;28;20182;-80
2022/12/17 23:35:09;;;;;;;66.78;26.33;;;-9.50;99.90;;;;;;4994791;28;20195;-79
2022/12/17 23:37:35;;;;;;;62.13;25.85;;;-9.40;99.90;;;;;;5009786;28;20205;-83
2022/12/17 23:40:01;;;;;;;73.80;27.43;;;-9.50;99.90;;;;;;4984462;28;20207;-79
2022/12/17 23:42:27;;;;;;;64.90;28.83;;;-9.40;99.90;;;;;;4990210;28;20433;-83
2022/12/17 23:44:53;;;;;;;54.10;24.53;;;-9.40;99.90;;;;;;4986188;28;20236;-80
2022/12/17 23:47:18;;;;;;;61.10;26.60;;;-9.40;99.90;;;;;;4989162;28;20289;-83
2022/12/17 23:49:44;;;;;;;64.80;24.43;;;-9.40;99.90;;;;;;5016016;28;20221;-78
2022/12/17 23:52:09;;;;;;;68.67;28.47;;;-9.50;99.90;;;;;;5001862;28;20186;-83
2022/12/17 23:54:35;;;;;;;58.30;24.00;;;-9.50;99.90;;;;;;5015012;28;20226;-82
2022/12/17 23:57:00;;;;;;;71.87;25.67;;;-9.50;99.90;;;;;;4997292;28;20332;-78
2022/12/17 23:59:26;;;;;;;61.87;24.03;;;-9.50;99.90;;;;;;4987831;28;20195;-81
